sensor_id;sensor_type;location;lat;lon;timestamp;P1;durP1;ratioP1;P2;durP2;ratioP2
19812;SDS011;10066;48.108;11.448;2023-03-02T00:01:18;27.27;;;14.53;;
19812;SDS011;10066;48.108;11.448;2023-03-02T00:03:49;24.90;;;14.03;;
19812;SDS011;10066;48.108;11.448;2023-03-02T00:06:16;31.33;;;17.80;;
19812;SDS011;10066;48.108;11.448;2023-03-02T00:08:44;34.60;;;17.90;;
19812;SDS011;10066;48.108;11.448;2023-03-02T00:11:16;24.63;;;14.10;;
19812;SDS011;10066;48.108;11.448;2023-03-02T00:13:45;25.63;;;14.50;;
19812;SDS011;10066;48.108;11.448;2023-03-02T00:16:12;34.37;;;18.00;;
19812;SDS011;10066;48.108;11.448;2023-03-02T00:18:40;35.17;;;17.57;;
19812;SDS011;10066;48.108;11.448;2023-03-02T00:21:07;29.73;;;15.63;;
19812;SDS011;10066;48.108;11.448;2023-03-02T00:23:35;28.30;;;15.47;;
19812;SDS011;10066;48.108;11.448;2023-03-02T00:26:02;34.23;;;18.17;;
19812;SDS011;10066;48.108;11.448;2023-03-02T00:28:30;33.17;;;19.47;;
19812;SDS011;10066;48.108;11.448;2023-03-02T00:30:57;33.63;;;18.93;;
19812;SDS011;10066;48.108;11.448;2023-03-02T00:33:24;29.83;;;16.23;;
19812;SDS011;10066;48.108;11.448;2023-03-02T00:35:52;34.00;;;18.67;;
19812;SDS011;10066;48.108;11.448;2023-03-02T00:38:19;31.50;;;18.37;;
19812;SDS011;10066;48.108;11.448;2023-03-02T00:40:46;34.00;;;17.93;;
19812;SDS011;10066;48.108;11.448;2023-03-02T00:43:14;37.00;;;18.53;;
19812;SDS011;10066;48.108;11.448;2023-03-02T00:45:41;35.00;;;18.77;;
19812;SDS011;10066;48.108;11.448;2023-03-02T00:48:08;31.93;;;17.07;;
19812;SDS011;10066;48.108;11.448;2023-03-02T00:50:37;31.27;;;17.17;;
19812;SDS011;10066;48.108;11.448;2023-03-02T00:53:07;33.33;;;16.87;;
19812;SDS011;10066;48.108;11.448;2023-03-02T00:55:34;33.43;;;18.00;;
19812;SDS011;10066;48.108;11.448;2023-03-02T00:58:02;31.63;;;17.83;;
19812;SDS011;10066;48.108;11.448;2023-03-02T01:00:30;32.70;;;17.10;;
19812;SDS011;10066;48.108;11.448;2023-03-02T01:02:58;31.33;;;17.40;;
19812;SDS011;10066;48.108;11.448;2023-03-02T01:05:34;31.57;;;17.73;;
19812;SDS011;10066;48.108;11.448;2023-03-02T01:08:02;34.47;;;19.03;;
19812;SDS011;10066;48.108;11.448;2023-03-02T01:10:33;35.20;;;19.87;;
19812;SDS011;10066;48.108;11.448;2023-03-02T01:13:00;36.80;;;18.47;;
19812;SDS011;10066;48.108;11.448;2023-03-02T01:15:27;33.70;;;18.80;;
19812;SDS011;10066;48.108;11.448;2023-03-02T01:17:54;34.87;;;19.73;;
19812;SDS011;10066;48.108;11.448;2023-03-02T01:20:21;36.27;;;18.53;;
19812;SDS011;10066;48.108;11.448;2023-03-02T01:22:48;30.53;;;15.67;;
19812;SDS011;10066;48.108;11.448;2023-03-02T01:25:15;36.50;;;19.00;;
19812;SDS011;10066;48.108;11.448;2023-03-02T01:27:43;30.10;;;15.57;;
19812;SDS011;10066;48.108;11.448;2023-03-02T01:30:10;36.57;;;18.90;;
19812;SDS011;10066;48.108;11.448;2023-03-02T01:32:38;40.23;;;20.27;;
19812;SDS011;10066;48.108;11.448;2023-03-02T01:35:05;37.13;;;19.33;;
19812;SDS011;10066;48.108;11.448;2023-03-02T01:37:33;32.37;;;17.17;;
19812;SDS011;10066;48.108;11.448;2023-03-02T01:40:00;34.87;;;18.97;;
19812;SDS011;10066;48.108;11.448;2023-03-02T01:42:32;43.50;;;20.33;;
19812;SDS011;10066;48.108;11.448;2023-03-02T01:45:04;37.50;;;19.43;;
19812;SDS011;10066;48.108;11.448;2023-03-02T01:47:55;33.23;;;18.50;;
19812;SDS011;10066;48.108;11.448;2023-03-02T01:50:23;35.87;;;19.80;;
19812;SDS011;10066;48.108;11.448;2023-03-02T01:52:51;35.47;;;19.40;;
19812;SDS011;10066;48.108;11.448;2023-03-02T01:55:20;32.10;;;19.60;;
19812;SDS011;10066;48.108;11.448;2023-03-02T01:57:51;32.87;;;18.07;;
19812;SDS011;10066;48.108;11.448;2023-03-02T02:00:20;33.07;;;18.67;;
19812;SDS011;10066;48.108;11.448;2023-03-02T02:02:49;35.10;;;19.60;;
19812;SDS011;10066;48.108;11.448;2023-03-02T02:05:20;35.97;;;19.47;;
19812;SDS011;10066;48.108;11.448;2023-03-02T02:07:50;36.30;;;18.90;;
19812;SDS011;10066;48.108;11.448;2023-03-02T02:10:18;31.67;;;18.43;;
19812;SDS011;10066;48.108;11.448;2023-03-02T02:12:45;34.63;;;19.07;;
19812;SDS011;10066;48.108;11.448;2023-03-02T02:15:13;34.43;;;18.80;;
19812;SDS011;10066;48.108;11.448;2023-03-02T02:17:40;36.43;;;19.57;;
19812;SDS011;10066;48.108;11.448;2023-03-02T02:20:12;32.63;;;19.03;;
19812;SDS011;10066;48.108;11.448;2023-03-02T02:22:49;34.77;;;18.17;;
19812;SDS011;10066;48.108;11.448;2023-03-02T02:25:26;34.13;;;18.03;;
19812;SDS011;10066;48.108;11.448;2023-03-02T02:28:11;29.97;;;18.03;;
19812;SDS011;10066;48.108;11.448;2023-03-02T02:30:42;32.17;;;19.07;;
19812;SDS011;10066;48.108;11.448;2023-03-02T02:33:11;32.37;;;18.40;;
19812;SDS011;10066;48.108;11.448;2023-03-02T02:35:45;28.50;;;16.47;;
19812;SDS011;10066;48.108;11.448;2023-03-02T02:38:15;30.93;;;17.57;;
19812;SDS011;10066;48.108;11.448;2023-03-02T02:40:44;35.43;;;18.27;;
19812;SDS011;10066;48.108;11.448;2023-03-02T02:43:17;34.30;;;19.93;;
19812;SDS011;10066;48.108;11.448;2023-03-02T02:45:46;33.07;;;20.17;;
19812;SDS011;10066;48.108;11.448;2023-03-02T02:48:14;36.33;;;19.23;;
19812;SDS011;10066;48.108;11.448;2023-03-02T02:50:44;34.93;;;20.50;;
19812;SDS011;10066;48.108;11.448;2023-03-02T02:53:13;34.77;;;19.00;;
19812;SDS011;10066;48.108;11.448;2023-03-02T02:55:45;36.63;;;20.53;;
19812;SDS011;10066;48.108;11.448;2023-03-02T02:58:19;33.93;;;19.27;;
19812;SDS011;10066;48.108;11.448;2023-03-02T03:00:53;38.23;;;21.57;;
19812;SDS011;10066;48.108;11.448;2023-03-02T03:03:23;37.90;;;21.97;;
19812;SDS011;10066;48.108;11.448;2023-03-02T03:05:56;37.93;;;21.33;;
19812;SDS011;10066;48.108;11.448;2023-03-02T03:11:26;36.47;;;18.90;;
19812;SDS011;10066;48.108;11.448;2023-03-02T03:13:57;40.87;;;22.80;;
19812;SDS011;10066;48.108;11.448;2023-03-02T03:16:29;40.73;;;22.47;;
19812;SDS011;10066;48.108;11.448;2023-03-02T03:18:57;43.50;;;22.90;;
19812;SDS011;10066;48.108;11.448;2023-03-02T03:21:30;42.23;;;23.37;;
19812;SDS011;10066;48.108;11.448;2023-03-02T03:23:57;40.13;;;21.57;;
19812;SDS011;10066;48.108;11.448;2023-03-02T03:26:24;40.13;;;22.77;;
19812;SDS011;10066;48.108;11.448;2023-03-02T03:28:51;36.83;;;19.80;;
19812;SDS011;10066;48.108;11.448;2023-03-02T03:31:22;38.67;;;22.87;;
19812;SDS011;10066;48.108;11.448;2023-03-02T03:33:50;37.13;;;20.83;;
19812;SDS011;10066;48.108;11.448;2023-03-02T03:36:17;41.00;;;21.27;;
19812;SDS011;10066;48.108;11.448;2023-03-02T03:38:44;37.10;;;17.80;;
19812;SDS011;10066;48.108;11.448;2023-03-02T03:41:11;41.20;;;23.27;;
19812;SDS011;10066;48.108;11.448;2023-03-02T03:43:38;44.30;;;23.20;;
19812;SDS011;10066;48.108;11.448;2023-03-02T03:46:05;39.37;;;22.90;;
19812;SDS011;10066;48.108;11.448;2023-03-02T03:48:33;40.97;;;21.87;;
19812;SDS011;10066;48.108;11.448;2023-03-02T03:51:00;37.03;;;20.50;;
19812;SDS011;10066;48.108;11.448;2023-03-02T03:53:27;38.67;;;21.27;;
19812;SDS011;10066;48.108;11.448;2023-03-02T03:55:54;43.57;;;23.00;;
19812;SDS011;10066;48.108;11.448;2023-03-02T03:58:22;40.73;;;21.73;;
19812;SDS011;10066;48.108;11.448;2023-03-02T04:00:49;39.13;;;21.40;;
19812;SDS011;10066;48.108;11.448;2023-03-02T04:03:17;40.57;;;21.47;;
19812;SDS011;10066;48.108;11.448;2023-03-02T04:05:46;42.37;;;22.53;;
19812;SDS011;10066;48.108;11.448;2023-03-02T04:08:13;35.10;;;21.57;;
19812;SDS011;10066;48.108;11.448;2023-03-02T04:10:40;39.50;;;21.27;;
19812;SDS011;10066;48.108;11.448;2023-03-02T04:13:07;33.33;;;19.83;;
19812;SDS011;10066;48.108;11.448;2023-03-02T04:15:34;37.63;;;20.67;;
19812;SDS011;10066;48.108;11.448;2023-03-02T04:18:01;32.57;;;20.30;;
19812;SDS011;10066;48.108;11.448;2023-03-02T04:20:28;35.90;;;20.77;;
19812;SDS011;10066;48.108;11.448;2023-03-02T04:22:56;35.80;;;20.57;;
19812;SDS011;10066;48.108;11.448;2023-03-02T04:25:24;38.33;;;20.40;;
19812;SDS011;10066;48.108;11.448;2023-03-02T04:27:53;39.07;;;21.03;;
19812;SDS011;10066;48.108;11.448;2023-03-02T04:30:23;41.13;;;21.87;;
19812;SDS011;10066;48.108;11.448;2023-03-02T04:32:51;35.50;;;22.30;;
19812;SDS011;10066;48.108;11.448;2023-03-02T04:35:21;37.93;;;21.67;;
19812;SDS011;10066;48.108;11.448;2023-03-02T04:37:49;39.63;;;22.27;;
19812;SDS011;10066;48.108;11.448;2023-03-02T04:40:17;39.50;;;22.77;;
19812;SDS011;10066;48.108;11.448;2023-03-02T04:42:45;36.20;;;21.87;;
19812;SDS011;10066;48.108;11.448;2023-03-02T04:45:12;36.40;;;20.80;;
19812;SDS011;10066;48.108;11.448;2023-03-02T04:47:39;33.43;;;19.93;;
19812;SDS011;10066;48.108;11.448;2023-03-02T04:50:06;33.33;;;18.70;;
19812;SDS011;10066;48.108;11.448;2023-03-02T04:52:35;33.57;;;19.77;;
19812;SDS011;10066;48.108;11.448;2023-03-02T04:55:02;36.37;;;19.60;;
19812;SDS011;10066;48.108;11.448;2023-03-02T04:57:33;34.03;;;20.10;;
19812;SDS011;10066;48.108;11.448;2023-03-02T05:00:00;35.67;;;18.57;;
19812;SDS011;10066;48.108;11.448;2023-03-02T05:02:28;35.07;;;20.63;;
19812;SDS011;10066;48.108;11.448;2023-03-02T05:04:55;34.07;;;19.73;;
19812;SDS011;10066;48.108;11.448;2023-03-02T05:07:22;36.13;;;20.90;;
19812;SDS011;10066;48.108;11.448;2023-03-02T05:09:49;35.37;;;18.90;;
19812;SDS011;10066;48.108;11.448;2023-03-02T05:12:16;36.30;;;19.67;;
19812;SDS011;10066;48.108;11.448;2023-03-02T05:14:47;34.43;;;19.90;;
19812;SDS011;10066;48.108;11.448;2023-03-02T05:17:14;32.43;;;19.03;;
19812;SDS011;10066;48.108;11.448;2023-03-02T05:19:41;36.53;;;18.87;;
19812;SDS011;10066;48.108;11.448;2023-03-02T05:22:08;39.30;;;20.37;;
19812;SDS011;10066;48.108;11.448;2023-03-02T05:24:35;32.57;;;19.20;;
19812;SDS011;10066;48.108;11.448;2023-03-02T05:27:02;31.23;;;18.97;;
19812;SDS011;10066;48.108;11.448;2023-03-02T05:29:29;32.33;;;19.63;;
19812;SDS011;10066;48.108;11.448;2023-03-02T05:31:58;32.10;;;18.87;;
19812;SDS011;10066;48.108;11.448;2023-03-02T05:34:25;34.20;;;19.07;;
19812;SDS011;10066;48.108;11.448;2023-03-02T05:36:52;33.90;;;19.63;;
19812;SDS011;10066;48.108;11.448;2023-03-02T05:39:21;32.20;;;19.43;;
19812;SDS011;10066;48.108;11.448;2023-03-02T05:41:47;33.80;;;19.47;;
19812;SDS011;10066;48.108;11.448;2023-03-02T05:44:14;36.67;;;19.57;;
19812;SDS011;10066;48.108;11.448;2023-03-02T05:46:41;33.30;;;20.33;;
19812;SDS011;10066;48.108;11.448;2023-03-02T05:49:09;35.40;;;20.13;;
19812;SDS011;10066;48.108;11.448;2023-03-02T05:51:36;37.30;;;20.10;;
19812;SDS011;10066;48.108;11.448;2023-03-02T05:54:03;36.40;;;19.97;;
19812;SDS011;10066;48.108;11.448;2023-03-02T05:56:31;34.97;;;20.43;;
19812;SDS011;10066;48.108;11.448;2023-03-02T05:58:58;33.50;;;19.17;;
19812;SDS011;10066;48.108;11.448;2023-03-02T06:01:26;37.57;;;20.40;;
19812;SDS011;10066;48.108;11.448;2023-03-02T06:03:53;36.83;;;20.00;;
19812;SDS011;10066;48.108;11.448;2023-03-02T06:06:22;40.27;;;21.43;;
19812;SDS011;10066;48.108;11.448;2023-03-02T06:08:49;37.90;;;21.30;;
19812;SDS011;10066;48.108;11.448;2023-03-02T06:11:16;38.40;;;20.63;;
19812;SDS011;10066;48.108;11.448;2023-03-02T06:13:42;33.77;;;19.43;;
19812;SDS011;10066;48.108;11.448;2023-03-02T06:16:10;39.60;;;21.23;;
19812;SDS011;10066;48.108;11.448;2023-03-02T06:18:37;37.53;;;21.27;;
19812;SDS011;10066;48.108;11.448;2023-03-02T06:21:04;35.73;;;20.97;;
19812;SDS011;10066;48.108;11.448;2023-03-02T06:23:32;38.47;;;20.83;;
19812;SDS011;10066;48.108;11.448;2023-03-02T06:25:59;33.83;;;19.20;;
19812;SDS011;10066;48.108;11.448;2023-03-02T06:28:32;42.33;;;20.70;;
19812;SDS011;10066;48.108;11.448;2023-03-02T06:30:59;35.80;;;20.67;;
19812;SDS011;10066;48.108;11.448;2023-03-02T06:33:26;38.00;;;21.43;;
19812;SDS011;10066;48.108;11.448;2023-03-02T06:35:54;38.00;;;21.40;;
19812;SDS011;10066;48.108;11.448;2023-03-02T06:38:22;39.20;;;21.87;;
19812;SDS011;10066;48.108;11.448;2023-03-02T06:40:50;40.37;;;21.60;;
19812;SDS011;10066;48.108;11.448;2023-03-02T06:43:17;39.03;;;22.03;;
19812;SDS011;10066;48.108;11.448;2023-03-02T06:45:44;38.17;;;22.50;;
19812;SDS011;10066;48.108;11.448;2023-03-02T06:48:11;39.60;;;22.03;;
19812;SDS011;10066;48.108;11.448;2023-03-02T06:50:38;42.17;;;23.40;;
19812;SDS011;10066;48.108;11.448;2023-03-02T06:53:05;43.17;;;24.07;;
19812;SDS011;10066;48.108;11.448;2023-03-02T06:55:32;42.20;;;23.37;;
19812;SDS011;10066;48.108;11.448;2023-03-02T06:58:00;41.57;;;23.40;;
19812;SDS011;10066;48.108;11.448;2023-03-02T07:00:27;44.57;;;24.83;;
19812;SDS011;10066;48.108;11.448;2023-03-02T07:02:54;45.20;;;23.33;;
19812;SDS011;10066;48.108;11.448;2023-03-02T07:05:22;42.67;;;24.73;;
19812;SDS011;10066;48.108;11.448;2023-03-02T07:07:49;47.43;;;25.73;;
19812;SDS011;10066;48.108;11.448;2023-03-02T07:10:16;47.70;;;25.33;;
19812;SDS011;10066;48.108;11.448;2023-03-02T07:12:43;45.67;;;24.43;;
19812;SDS011;10066;48.108;11.448;2023-03-02T07:15:12;48.87;;;25.80;;
19812;SDS011;10066;48.108;11.448;2023-03-02T07:17:39;47.03;;;26.47;;
19812;SDS011;10066;48.108;11.448;2023-03-02T07:20:11;43.97;;;24.03;;
19812;SDS011;10066;48.108;11.448;2023-03-02T07:22:40;49.37;;;26.97;;
19812;SDS011;10066;48.108;11.448;2023-03-02T07:25:08;45.40;;;25.33;;
19812;SDS011;10066;48.108;11.448;2023-03-02T07:27:36;45.53;;;26.47;;
19812;SDS011;10066;48.108;11.448;2023-03-02T07:30:06;46.40;;;24.00;;
19812;SDS011;10066;48.108;11.448;2023-03-02T07:32:35;45.60;;;24.03;;
19812;SDS011;10066;48.108;11.448;2023-03-02T07:35:02;48.80;;;25.87;;
19812;SDS011;10066;48.108;11.448;2023-03-02T07:37:29;47.47;;;26.23;;
19812;SDS011;10066;48.108;11.448;2023-03-02T07:39:56;47.40;;;26.80;;
19812;SDS011;10066;48.108;11.448;2023-03-02T07:42:26;45.03;;;24.60;;
19812;SDS011;10066;48.108;11.448;2023-03-02T07:44:53;48.27;;;25.60;;
19812;SDS011;10066;48.108;11.448;2023-03-02T07:47:20;48.03;;;26.17;;
19812;SDS011;10066;48.108;11.448;2023-03-02T07:49:48;51.73;;;26.57;;
19812;SDS011;10066;48.108;11.448;2023-03-02T07:52:16;52.00;;;25.87;;
19812;SDS011;10066;48.108;11.448;2023-03-02T07:54:43;47.27;;;25.50;;
19812;SDS011;10066;48.108;11.448;2023-03-02T07:57:09;43.80;;;26.13;;
19812;SDS011;10066;48.108;11.448;2023-03-02T07:59:37;44.47;;;23.60;;
19812;SDS011;10066;48.108;11.448;2023-03-02T08:02:08;45.13;;;25.20;;
19812;SDS011;10066;48.108;11.448;2023-03-02T08:04:37;42.60;;;24.73;;
19812;SDS011;10066;48.108;11.448;2023-03-02T08:07:05;44.80;;;23.27;;
19812;SDS011;10066;48.108;11.448;2023-03-02T08:09:32;40.30;;;24.00;;
19812;SDS011;10066;48.108;11.448;2023-03-02T08:11:59;45.77;;;24.47;;
19812;SDS011;10066;48.108;11.448;2023-03-02T08:14:30;45.23;;;24.47;;
19812;SDS011;10066;48.108;11.448;2023-03-02T08:17:00;41.67;;;23.17;;
19812;SDS011;10066;48.108;11.448;2023-03-02T08:19:27;45.40;;;23.97;;
19812;SDS011;10066;48.108;11.448;2023-03-02T08:21:54;40.20;;;23.03;;
19812;SDS011;10066;48.108;11.448;2023-03-02T08:24:23;31.73;;;18.17;;
19812;SDS011;10066;48.108;11.448;2023-03-02T08:26:50;42.23;;;25.03;;
19812;SDS011;10066;48.108;11.448;2023-03-02T08:29:17;39.30;;;22.40;;
19812;SDS011;10066;48.108;11.448;2023-03-02T08:31:44;37.73;;;23.13;;
19812;SDS011;10066;48.108;11.448;2023-03-02T08:34:11;38.33;;;21.90;;
19812;SDS011;10066;48.108;11.448;2023-03-02T08:36:38;34.33;;;20.43;;
19812;SDS011;10066;48.108;11.448;2023-03-02T08:39:07;35.53;;;19.70;;
19812;SDS011;10066;48.108;11.448;2023-03-02T08:41:35;26.67;;;16.03;;
19812;SDS011;10066;48.108;11.448;2023-03-02T08:44:02;26.07;;;16.13;;
19812;SDS011;10066;48.108;11.448;2023-03-02T08:46:29;27.57;;;17.10;;
19812;SDS011;10066;48.108;11.448;2023-03-02T08:48:56;27.50;;;17.13;;
19812;SDS011;10066;48.108;11.448;2023-03-02T08:51:23;27.13;;;16.10;;
19812;SDS011;10066;48.108;11.448;2023-03-02T08:53:51;24.33;;;16.57;;
19812;SDS011;10066;48.108;11.448;2023-03-02T08:56:21;24.83;;;15.30;;
19812;SDS011;10066;48.108;11.448;2023-03-02T08:58:51;28.10;;;16.90;;
19812;SDS011;10066;48.108;11.448;2023-03-02T09:01:20;24.30;;;15.30;;
19812;SDS011;10066;48.108;11.448;2023-03-02T09:03:49;25.97;;;15.27;;
19812;SDS011;10066;48.108;11.448;2023-03-02T09:06:15;24.17;;;15.27;;
19812;SDS011;10066;48.108;11.448;2023-03-02T09:08:46;23.83;;;15.93;;
19812;SDS011;10066;48.108;11.448;2023-03-02T09:11:14;24.03;;;14.63;;
19812;SDS011;10066;48.108;11.448;2023-03-02T09:13:41;24.90;;;14.77;;
19812;SDS011;10066;48.108;11.448;2023-03-02T09:16:10;25.47;;;15.50;;
19812;SDS011;10066;48.108;11.448;2023-03-02T09:18:37;24.87;;;15.37;;
19812;SDS011;10066;48.108;11.448;2023-03-02T09:21:05;24.07;;;16.00;;
19812;SDS011;10066;48.108;11.448;2023-03-02T09:23:32;21.83;;;14.20;;
19812;SDS011;10066;48.108;11.448;2023-03-02T09:26:00;27.03;;;17.27;;
19812;SDS011;10066;48.108;11.448;2023-03-02T09:28:30;24.23;;;15.13;;
19812;SDS011;10066;48.108;11.448;2023-03-02T09:30:58;22.93;;;14.83;;
19812;SDS011;10066;48.108;11.448;2023-03-02T09:33:28;21.53;;;14.40;;
19812;SDS011;10066;48.108;11.448;2023-03-02T09:35:55;24.83;;;14.27;;
19812;SDS011;10066;48.108;11.448;2023-03-02T09:38:22;25.80;;;15.00;;
19812;SDS011;10066;48.108;11.448;2023-03-02T09:43:46;22.33;;;12.33;;
19812;SDS011;10066;48.108;11.448;2023-03-02T09:46:19;22.53;;;14.30;;
19812;SDS011;10066;48.108;11.448;2023-03-02T09:48:58;26.00;;;15.07;;
19812;SDS011;10066;48.108;11.448;2023-03-02T09:51:39;22.30;;;14.73;;
19812;SDS011;10066;48.108;11.448;2023-03-02T09:54:11;23.60;;;14.17;;
19812;SDS011;10066;48.108;11.448;2023-03-02T09:56:41;28.43;;;16.83;;
19812;SDS011;10066;48.108;11.448;2023-03-02T09:59:14;23.37;;;14.30;;
19812;SDS011;10066;48.108;11.448;2023-03-02T10:01:47;24.67;;;15.03;;
19812;SDS011;10066;48.108;11.448;2023-03-02T10:04:22;21.20;;;13.53;;
19812;SDS011;10066;48.108;11.448;2023-03-02T10:06:53;24.53;;;14.37;;
19812;SDS011;10066;48.108;11.448;2023-03-02T10:09:22;24.60;;;14.40;;
19812;SDS011;10066;48.108;11.448;2023-03-02T10:12:07;19.23;;;12.20;;
19812;SDS011;10066;48.108;11.448;2023-03-02T10:14:51;21.80;;;14.50;;
19812;SDS011;10066;48.108;11.448;2023-03-02T10:17:30;23.87;;;13.60;;
19812;SDS011;10066;48.108;11.448;2023-03-02T10:20:10;22.00;;;14.20;;
19812;SDS011;10066;48.108;11.448;2023-03-02T10:22:43;18.67;;;13.07;;
19812;SDS011;10066;48.108;11.448;2023-03-02T10:25:16;21.60;;;13.50;;
19812;SDS011;10066;48.108;11.448;2023-03-02T10:27:54;20.60;;;13.47;;
19812;SDS011;10066;48.108;11.448;2023-03-02T10:30:27;18.90;;;12.67;;
19812;SDS011;10066;48.108;11.448;2023-03-02T10:32:57;20.07;;;12.43;;
19812;SDS011;10066;48.108;11.448;2023-03-02T10:35:30;16.87;;;10.87;;
19812;SDS011;10066;48.108;11.448;2023-03-02T10:37:58;21.70;;;13.03;;
19812;SDS011;10066;48.108;11.448;2023-03-02T10:40:36;18.77;;;12.67;;
19812;SDS011;10066;48.108;11.448;2023-03-02T10:43:06;18.53;;;13.20;;
19812;SDS011;10066;48.108;11.448;2023-03-02T10:45:41;22.53;;;12.83;;
19812;SDS011;10066;48.108;11.448;2023-03-02T10:48:09;20.77;;;12.97;;
19812;SDS011;10066;48.108;11.448;2023-03-02T10:50:40;18.60;;;12.37;;
19812;SDS011;10066;48.108;11.448;2023-03-02T10:53:14;19.90;;;12.93;;
19812;SDS011;10066;48.108;11.448;2023-03-02T10:55:43;16.57;;;11.47;;
19812;SDS011;10066;48.108;11.448;2023-03-02T10:58:18;17.13;;;11.30;;
19812;SDS011;10066;48.108;11.448;2023-03-02T11:00:55;19.27;;;11.90;;
19812;SDS011;10066;48.108;11.448;2023-03-02T11:03:27;22.77;;;13.30;;
19812;SDS011;10066;48.108;11.448;2023-03-02T11:05:56;17.03;;;10.80;;
19812;SDS011;10066;48.108;11.448;2023-03-02T11:08:35;20.57;;;11.23;;
19812;SDS011;10066;48.108;11.448;2023-03-02T11:11:02;16.40;;;10.37;;
19812;SDS011;10066;48.108;11.448;2023-03-02T11:13:31;16.47;;;11.43;;
19812;SDS011;10066;48.108;11.448;2023-03-02T11:16:01;18.33;;;11.17;;
19812;SDS011;10066;48.108;11.448;2023-03-02T11:18:30;17.27;;;11.60;;
19812;SDS011;10066;48.108;11.448;2023-03-02T11:21:02;16.03;;;10.43;;
19812;SDS011;10066;48.108;11.448;2023-03-02T11:23:37;15.87;;;10.30;;
19812;SDS011;10066;48.108;11.448;2023-03-02T11:26:22;16.77;;;10.93;;
19812;SDS011;10066;48.108;11.448;2023-03-02T11:28:53;15.17;;;10.03;;
19812;SDS011;10066;48.108;11.448;2023-03-02T11:31:28;13.57;;;8.90;;
19812;SDS011;10066;48.108;11.448;2023-03-02T11:34:20;14.17;;;9.67;;
19812;SDS011;10066;48.108;11.448;2023-03-02T11:36:57;17.50;;;10.20;;
19812;SDS011;10066;48.108;11.448;2023-03-02T11:39:33;12.63;;;9.33;;
19812;SDS011;10066;48.108;11.448;2023-03-02T11:42:10;18.67;;;9.77;;
19812;SDS011;10066;48.108;11.448;2023-03-02T11:44:44;18.10;;;9.77;;
19812;SDS011;10066;48.108;11.448;2023-03-02T11:47:11;13.40;;;8.90;;
19812;SDS011;10066;48.108;11.448;2023-03-02T11:49:41;13.23;;;9.43;;
19812;SDS011;10066;48.108;11.448;2023-03-02T11:52:16;11.60;;;8.83;;
19812;SDS011;10066;48.108;11.448;2023-03-02T11:54:45;11.47;;;8.80;;
19812;SDS011;10066;48.108;11.448;2023-03-02T11:57:19;13.97;;;8.47;;
19812;SDS011;10066;48.108;11.448;2023-03-02T11:59:48;15.13;;;9.57;;
19812;SDS011;10066;48.108;11.448;2023-03-02T12:02:16;14.27;;;8.30;;
19812;SDS011;10066;48.108;11.448;2023-03-02T12:04:45;14.40;;;9.27;;
19812;SDS011;10066;48.108;11.448;2023-03-02T12:07:19;11.97;;;8.83;;
19812;SDS011;10066;48.108;11.448;2023-03-02T12:10:01;11.93;;;9.37;;
19812;SDS011;10066;48.108;11.448;2023-03-02T12:12:32;13.13;;;8.70;;
19812;SDS011;10066;48.108;11.448;2023-03-02T12:18:15;12.23;;;8.67;;
19812;SDS011;10066;48.108;11.448;2023-03-02T12:20:57;13.20;;;9.30;;
19812;SDS011;10066;48.108;11.448;2023-03-02T12:23:26;16.53;;;9.63;;
19812;SDS011;10066;48.108;11.448;2023-03-02T12:26:02;13.83;;;8.73;;
19812;SDS011;10066;48.108;11.448;2023-03-02T12:28:32;10.60;;;7.90;;
19812;SDS011;10066;48.108;11.448;2023-03-02T12:31:05;15.27;;;8.07;;
19812;SDS011;10066;48.108;11.448;2023-03-02T12:33:40;11.83;;;7.83;;
19812;SDS011;10066;48.108;11.448;2023-03-02T12:36:10;10.00;;;7.20;;
19812;SDS011;10066;48.108;11.448;2023-03-02T12:38:41;10.57;;;7.67;;
19812;SDS011;10066;48.108;11.448;2023-03-02T12:41:14;9.67;;;7.60;;
19812;SDS011;10066;48.108;11.448;2023-03-02T12:43:55;16.93;;;8.50;;
19812;SDS011;10066;48.108;11.448;2023-03-02T12:46:31;11.23;;;7.90;;
19812;SDS011;10066;48.108;11.448;2023-03-02T12:49:04;13.57;;;9.30;;
19812;SDS011;10066;48.108;11.448;2023-03-02T12:51:43;11.97;;;8.30;;
19812;SDS011;10066;48.108;11.448;2023-03-02T12:54:15;12.50;;;8.17;;
19812;SDS011;10066;48.108;11.448;2023-03-02T12:56:44;11.93;;;7.63;;
19812;SDS011;10066;48.108;11.448;2023-03-02T12:59:22;12.40;;;8.70;;
19812;SDS011;10066;48.108;11.448;2023-03-02T13:02:02;11.07;;;8.20;;
19812;SDS011;10066;48.108;11.448;2023-03-02T13:04:39;12.77;;;8.40;;
19812;SDS011;10066;48.108;11.448;2023-03-02T13:07:13;13.13;;;7.90;;
19812;SDS011;10066;48.108;11.448;2023-03-02T13:09:47;13.67;;;8.33;;
19812;SDS011;10066;48.108;11.448;2023-03-02T13:12:15;10.53;;;7.70;;
19812;SDS011;10066;48.108;11.448;2023-03-02T13:14:43;13.77;;;8.40;;
19812;SDS011;10066;48.108;11.448;2023-03-02T13:17:19;12.83;;;8.43;;
19812;SDS011;10066;48.108;11.448;2023-03-02T13:19:48;14.43;;;8.70;;
19812;SDS011;10066;48.108;11.448;2023-03-02T13:22:19;10.97;;;8.10;;
19812;SDS011;10066;48.108;11.448;2023-03-02T13:24:50;12.03;;;8.27;;
19812;SDS011;10066;48.108;11.448;2023-03-02T13:27:22;14.00;;;8.37;;
19812;SDS011;10066;48.108;11.448;2023-03-02T13:29:50;14.80;;;8.63;;
19812;SDS011;10066;48.108;11.448;2023-03-02T13:32:21;13.33;;;8.23;;
19812;SDS011;10066;48.108;11.448;2023-03-02T13:34:50;14.33;;;8.40;;
19812;SDS011;10066;48.108;11.448;2023-03-02T13:37:27;14.40;;;8.37;;
19812;SDS011;10066;48.108;11.448;2023-03-02T13:40:02;14.27;;;8.60;;
19812;SDS011;10066;48.108;11.448;2023-03-02T13:42:36;13.57;;;8.30;;
19812;SDS011;10066;48.108;11.448;2023-03-02T13:45:22;14.73;;;8.20;;
19812;SDS011;10066;48.108;11.448;2023-03-02T13:47:50;10.77;;;8.37;;
19812;SDS011;10066;48.108;11.448;2023-03-02T13:50:18;13.77;;;8.33;;
19812;SDS011;10066;48.108;11.448;2023-03-02T13:52:48;16.97;;;9.10;;
19812;SDS011;10066;48.108;11.448;2023-03-02T13:55:19;11.00;;;8.40;;
19812;SDS011;10066;48.108;11.448;2023-03-02T13:57:47;13.83;;;8.50;;
19812;SDS011;10066;48.108;11.448;2023-03-02T14:00:17;14.47;;;9.83;;
19812;SDS011;10066;48.108;11.448;2023-03-02T14:02:47;10.93;;;8.47;;
19812;SDS011;10066;48.108;11.448;2023-03-02T14:05:15;11.43;;;8.47;;
19812;SDS011;10066;48.108;11.448;2023-03-02T14:07:44;11.43;;;8.50;;
19812;SDS011;10066;48.108;11.448;2023-03-02T14:10:11;11.90;;;8.37;;
19812;SDS011;10066;48.108;11.448;2023-03-02T14:12:41;10.77;;;7.63;;
19812;SDS011;10066;48.108;11.448;2023-03-02T14:15:18;12.90;;;8.47;;
19812;SDS011;10066;48.108;11.448;2023-03-02T14:17:46;12.17;;;8.00;;
19812;SDS011;10066;48.108;11.448;2023-03-02T14:20:15;12.00;;;7.97;;
19812;SDS011;10066;48.108;11.448;2023-03-02T14:22:44;15.37;;;8.77;;
19812;SDS011;10066;48.108;11.448;2023-03-02T14:25:11;15.43;;;9.10;;
19812;SDS011;10066;48.108;11.448;2023-03-02T14:27:40;16.03;;;8.47;;
19812;SDS011;10066;48.108;11.448;2023-03-02T14:30:11;14.63;;;8.53;;
19812;SDS011;10066;48.108;11.448;2023-03-02T14:32:41;13.73;;;8.57;;
19812;SDS011;10066;48.108;11.448;2023-03-02T14:35:09;14.53;;;9.20;;